Time;durP1;ratioP1;P1;durP2;ratioP2;P2;SDS_P1;SDS_P2;PMS_P1;PMS_P2;Temp;Humidity;BMP_temperature;BMP_pressure;BME280_temperature;BME280_humidity;BME280_pressure;Samples;Min_cycle;Max_cycle;Signal;HPM_P1;HPM_P2
2021/12/29 00:00:26;;;;;;;13.73;12.53;;;9.20;99.90;;;;;;5032123;28;20194;-68
2021/12/29 00:02:52;;;;;;;12.53;11.53;;;9.20;99.90;;;;;;5031768;28;20174;-68
2021/12/29 00:05:19;;;;;;;13.20;12.10;;;9.20;99.90;;;;;;5032300;28;20179;-67
2021/12/29 00:07:44;;;;;;;13.20;12.03;;;9.20;99.90;;;;;;5031936;28;20171;-68
2021/12/29 00:10:12;;;;;;;12.43;11.27;;;9.20;99.90;;;;;;5032422;28;20237;-66
2021/12/29 00:12:44;;;;;;;11.80;10.73;;;9.20;99.90;;;;;;5031614;28;20262;-68
2021/12/29 00:15:12;;;;;;;9.17;8.57;;;9.20;99.90;;;;;;5032030;28;20179;-66
2021/12/29 00:17:43;;;;;;;12.33;11.13;;;9.20;99.90;;;;;;5031892;28;20204;-68
2021/12/29 00:20:10;;;;;;;11.67;10.53;;;9.20;99.90;;;;;;5031060;28;20680;-68
2021/12/29 00:22:36;;;;;;;11.27;10.30;;;9.20;99.90;;;;;;5031542;28;20179;-68
2021/12/29 00:25:04;;;;;;;11.90;10.80;;;9.20;99.90;;;;;;5031339;28;20218;-67
2021/12/29 00:27:29;;;;;;;11.20;9.83;;;9.10;99.90;;;;;;5031016;28;20168;-68
2021/12/29 00:29:55;;;;;;;11.33;10.23;;;9.20;99.90;;;;;;5030668;28;20253;-67
2021/12/29 00:32:20;;;;;;;10.27;9.37;;;9.10;99.90;;;;;;5030405;28;20206;-68
2021/12/29 00:34:46;;;;;;;11.70;10.60;;;9.10;99.90;;;;;;5031944;28;20231;-68
2021/12/29 00:37:12;;;;;;;9.93;9.13;;;9.10;99.90;;;;;;5031581;28;20631;-69
2021/12/29 00:39:37;;;;;;;12.77;11.60;;;9.10;99.90;;;;;;5031007;28;20244;-68
2021/12/29 00:42:03;;;;;;;14.23;11.07;;;9.10;99.90;;;;;;5031341;28;20179;-68
2021/12/29 00:44:32;;;;;;;16.40;14.77;;;9.10;99.90;;;;;;5031612;28;20171;-67
2021/12/29 00:46:57;;;;;;;15.43;13.90;;;9.10;99.90;;;;;;5031587;28;20186;-65
2021/12/29 00:49:30;;;;;;;14.63;13.63;;;9.10;99.90;;;;;;5031925;28;20207;-64
2021/12/29 00:51:56;;;;;;;19.83;13.57;;;9.10;99.90;;;;;;5031080;28;20434;-64
2021/12/29 00:54:22;;;;;;;15.77;14.33;;;9.10;99.90;;;;;;5031396;28;20515;-65
2021/12/29 00:56:48;;;;;;;15.30;14.10;;;9.10;99.90;;;;;;5030890;28;20213;-66
2021/12/29 00:59:13;;;;;;;14.70;13.40;;;9.10;99.90;;;;;;5031230;28;20615;-64
2021/12/29 01:01:39;;;;;;;15.27;13.83;;;9.10;99.90;;;;;;5033029;28;20190;-66
2021/12/29 01:04:05;;;;;;;13.30;12.23;;;9.10;99.90;;;;;;5037888;28;20254;-67
2021/12/29 01:06:31;;;;;;;15.40;14.07;;;9.10;99.90;;;;;;5037605;28;20179;-65
2021/12/29 01:08:56;;;;;;;14.37;13.07;;;9.10;99.90;;;;;;5038080;28;20179;-65
2021/12/29 01:11:23;;;;;;;14.93;12.97;;;9.10;99.90;;;;;;5038129;28;20202;-65
2021/12/29 01:13:49;;;;;;;15.37;12.70;;;9.00;99.90;;;;;;5037808;28;20183;-67
2021/12/29 01:16:36;;;;;;;15.43;13.30;;;9.10;99.90;;;;;;5037706;28;20205;-65
2021/12/29 01:19:26;;;;;;;16.07;14.53;;;9.10;99.90;;;;;;5038037;28;20225;-66
2021/12/29 01:21:54;;;;;;;15.70;14.10;;;9.10;99.90;;;;;;5034811;28;20193;-65
2021/12/29 01:24:22;;;;;;;14.97;13.53;;;9.00;99.90;;;;;;5037441;28;20323;-65
2021/12/29 01:26:49;;;;;;;18.23;16.53;;;9.00;99.90;;;;;;5037781;28;20598;-65
2021/12/29 01:29:16;;;;;;;18.00;16.47;;;9.10;99.90;;;;;;5037615;28;20175;-64
2021/12/29 01:31:42;;;;;;;15.00;13.67;;;9.10;99.90;;;;;;5037451;28;20186;-67
2021/12/29 01:34:08;;;;;;;14.30;13.10;;;9.10;99.90;;;;;;5037624;28;20298;-67
2021/12/29 01:36:36;;;;;;;15.20;13.50;;;9.10;99.90;;;;;;5037645;28;20302;-64
2021/12/29 01:39:04;;;;;;;14.20;12.80;;;9.10;99.90;;;;;;5037680;28;20558;-65
2021/12/29 01:41:30;;;;;;;12.30;11.13;;;9.10;99.90;;;;;;5037303;28;20536;-65
2021/12/29 01:43:55;;;;;;;13.03;11.30;;;9.10;99.90;;;;;;5037330;28;20167;-67
2021/12/29 01:46:21;;;;;;;12.20;11.20;;;9.10;99.90;;;;;;5037535;28;20274;-68
2021/12/29 01:48:47;;;;;;;13.30;12.23;;;9.10;99.90;;;;;;5037836;28;20184;-66
2021/12/29 01:51:14;;;;;;;14.60;13.10;;;9.10;99.90;;;;;;5037335;28;20245;-66
2021/12/29 01:53:47;;;;;;;17.90;16.47;;;9.10;99.90;;;;;;5037177;28;20179;-66
2021/12/29 01:56:14;;;;;;;16.27;14.83;;;9.10;99.90;;;;;;5021650;28;20199;-65
2021/12/29 01:58:41;;;;;;;14.27;13.07;;;9.10;99.90;;;;;;5024014;28;20175;-67
2021/12/29 02:01:07;;;;;;;14.43;12.73;;;9.10;99.90;;;;;;5037639;28;20179;-64
2021/12/29 02:03:32;;;;;;;13.03;11.93;;;9.10;99.90;;;;;;5036874;28;20250;-65
2021/12/29 02:05:58;;;;;;;14.40;13.20;;;9.10;99.90;;;;;;5037613;28;20176;-65
2021/12/29 02:08:24;;;;;;;14.40;13.03;;;9.10;99.90;;;;;;5037192;28;20209;-65
2021/12/29 02:10:52;;;;;;;13.90;12.63;;;9.10;99.90;;;;;;5037448;28;20702;-64
2021/12/29 02:13:18;;;;;;;14.90;13.50;;;9.10;99.90;;;;;;5034644;28;20222;-64
2021/12/29 02:15:44;;;;;;;15.40;13.87;;;9.10;99.90;;;;;;5034296;28;20871;-64
2021/12/29 02:18:14;;;;;;;15.20;13.67;;;9.10;99.90;;;;;;5034315;28;20641;-65
2021/12/29 02:20:49;;;;;;;15.70;14.37;;;9.10;99.90;;;;;;5034192;28;20562;-65
2021/12/29 02:23:21;;;;;;;16.13;14.63;;;9.10;99.90;;;;;;5033907;28;20163;-64
2021/12/29 02:25:55;;;;;;;12.97;11.97;;;9.00;99.90;;;;;;5014441;28;20597;-65
2021/12/29 02:28:31;;;;;;;13.93;12.67;;;9.10;99.90;;;;;;5014611;28;20220;-65
2021/12/29 02:30:59;;;;;;;13.80;12.57;;;9.10;99.90;;;;;;5023648;28;20202;-65
2021/12/29 02:33:26;;;;;;;16.33;14.80;;;9.10;99.90;;;;;;5033676;28;20182;-64
2021/12/29 02:35:52;;;;;;;18.07;16.27;;;9.10;99.90;;;;;;5033596;28;20203;-64
2021/12/29 02:38:34;;;;;;;15.03;13.53;;;9.00;99.90;;;;;;5034019;28;20179;-65
2021/12/29 02:41:08;;;;;;;14.67;13.27;;;9.00;99.90;;;;;;5033828;28;20203;-65
2021/12/29 02:43:37;;;;;;;14.30;12.97;;;9.00;99.90;;;;;;5033819;28;20164;-64
2021/12/29 02:46:06;;;;;;;13.67;12.53;;;9.00;99.90;;;;;;5033711;28;20183;-65
2021/12/29 02:48:37;;;;;;;21.43;19.57;;;9.00;99.90;;;;;;5033432;28;20183;-64
2021/12/29 02:51:07;;;;;;;14.90;13.47;;;9.00;99.90;;;;;;5033970;28;20712;-64
2021/12/29 02:53:33;;;;;;;16.93;14.80;;;9.00;99.90;;;;;;5033122;28;20171;-64
2021/12/29 02:55:58;;;;;;;15.13;13.73;;;9.00;99.90;;;;;;5032416;28;20204;-65
2021/12/29 02:58:24;;;;;;;14.70;13.33;;;9.00;99.90;;;;;;5033453;28;20591;-65
2021/12/29 03:00:53;;;;;;;18.27;16.60;;;9.00;99.90;;;;;;5033391;28;20194;-64
2021/12/29 03:03:21;;;;;;;18.17;16.57;;;9.00;99.90;;;;;;5033172;28;20198;-65
2021/12/29 03:05:48;;;;;;;17.43;15.77;;;9.00;99.90;;;;;;5033352;28;20171;-64
2021/12/29 03:08:15;;;;;;;18.20;16.13;;;9.00;99.90;;;;;;5033115;28;20182;-65
2021/12/29 03:10:41;;;;;;;17.33;15.73;;;9.00;99.90;;;;;;5033152;28;20285;-65
2021/12/29 03:13:07;;;;;;;15.23;13.80;;;9.00;99.90;;;;;;5032942;28;20553;-64
2021/12/29 03:15:34;;;;;;;20.87;17.97;;;9.00;99.90;;;;;;5033032;28;20586;-63
2021/12/29 03:17:59;;;;;;;16.13;14.70;;;9.00;99.90;;;;;;5033546;28;20413;-64
2021/12/29 03:20:25;;;;;;;23.50;16.77;;;9.00;99.90;;;;;;5032880;28;20283;-64
2021/12/29 03:22:53;;;;;;;17.43;15.30;;;9.00;99.90;;;;;;5032810;28;20695;-64
2021/12/29 03:25:19;;;;;;;17.53;15.83;;;9.00;99.90;;;;;;5032468;28;20176;-64
2021/12/29 03:27:45;;;;;;;18.13;16.33;;;9.00;99.90;;;;;;5032931;28;20184;-64
2021/12/29 03:30:11;;;;;;;17.63;15.80;;;9.00;99.90;;;;;;5032750;28;20541;-64
2021/12/29 03:32:41;;;;;;;16.93;15.23;;;9.00;99.90;;;;;;5032602;28;20522;-64
2021/12/29 03:35:08;;;;;;;17.87;16.27;;;9.00;99.90;;;;;;5032635;28;20213;-65
2021/12/29 03:37:33;;;;;;;17.93;16.03;;;9.00;99.90;;;;;;5032705;28;20179;-63
2021/12/29 03:39:59;;;;;;;21.00;15.73;;;9.00;99.90;;;;;;5032854;28;20657;-64
2021/12/29 03:42:25;;;;;;;17.70;15.87;;;9.00;99.90;;;;;;5032180;28;20179;-65
2021/12/29 03:44:51;;;;;;;17.87;16.17;;;9.00;99.90;;;;;;5032626;28;20522;-64
2021/12/29 03:47:16;;;;;;;20.20;16.30;;;9.00;99.90;;;;;;5032265;28;20256;-65
2021/12/29 03:49:42;;;;;;;15.17;13.60;;;9.00;99.90;;;;;;5032381;28;20218;-64
2021/12/29 03:52:08;;;;;;;20.43;15.40;;;9.00;99.90;;;;;;5032180;28;20553;-64
2021/12/29 03:54:33;;;;;;;16.67;14.63;;;9.00;99.90;;;;;;5032295;28;20187;-65
2021/12/29 03:57:02;;;;;;;17.50;15.70;;;9.00;99.90;;;;;;5032155;28;20207;-65
2021/12/29 03:59:28;;;;;;;17.30;15.53;;;9.00;99.90;;;;;;5032381;28;20187;-64
2021/12/29 04:01:55;;;;;;;19.83;12.57;;;9.00;99.90;;;;;;5032084;28;20245;-65
2021/12/29 04:04:21;;;;;;;14.90;13.37;;;8.90;99.90;;;;;;5032006;28;20521;-63
2021/12/29 04:06:47;;;;;;;14.43;12.67;;;8.90;99.90;;;;;;5032289;28;20176;-65
2021/12/29 04:09:14;;;;;;;16.50;13.90;;;8.90;99.90;;;;;;5031713;28;20199;-65
2021/12/29 04:11:40;;;;;;;19.37;15.87;;;8.90;99.90;;;;;;5032171;28;20175;-65
2021/12/29 04:14:05;;;;;;;16.03;14.43;;;8.90;99.90;;;;;;5031817;28;20176;-65
2021/12/29 04:16:36;;;;;;;16.87;15.17;;;8.90;99.90;;;;;;5032075;28;20295;-65
2021/12/29 04:19:15;;;;;;;15.23;13.60;;;8.90;99.90;;;;;;5031755;28;20194;-66
2021/12/29 04:21:43;;;;;;;14.93;13.50;;;8.90;99.90;;;;;;5032050;28;20191;-66
2021/12/29 04:24:09;;;;;;;15.83;14.43;;;9.00;99.90;;;;;;5030782;28;20176;-66
2021/12/29 04:26:37;;;;;;;16.40;14.30;;;8.90;99.90;;;;;;5032031;28;20183;-65
2021/12/29 04:29:08;;;;;;;13.93;12.57;;;8.90;99.90;;;;;;5031611;28;20187;-66
2021/12/29 04:31:34;;;;;;;13.83;11.93;;;8.90;99.90;;;;;;5031555;28;20595;-65
2021/12/29 04:34:00;;;;;;;18.57;13.67;;;8.90;99.90;;;;;;5031589;28;20238;-67
2021/12/29 04:36:26;;;;;;;18.40;16.50;;;8.90;99.90;;;;;;5031122;28;20199;-65
2021/12/29 04:38:53;;;;;;;16.80;14.70;;;8.90;99.90;;;;;;5031582;28;20675;-66
2021/12/29 04:41:20;;;;;;;17.27;15.67;;;8.90;99.90;;;;;;5031483;28;20194;-66
2021/12/29 04:43:46;;;;;;;18.20;16.30;;;8.90;99.90;;;;;;5031271;28;20179;-65
2021/12/29 04:46:16;;;;;;;14.80;13.03;;;8.90;99.90;;;;;;5032005;28;20181;-66
2021/12/29 04:48:49;;;;;;;14.33;11.77;;;8.80;99.90;;;;;;5031375;28;20175;-66
2021/12/29 04:51:22;;;;;;;16.47;13.33;;;8.80;99.90;;;;;;5031366;28;20226;-67
2021/12/29 04:53:48;;;;;;;14.87;13.00;;;8.80;99.90;;;;;;5031176;28;20183;-65
2021/12/29 04:56:15;;;;;;;13.17;11.87;;;8.90;99.90;;;;;;5031492;28;20204;-65
2021/12/29 04:58:41;;;;;;;16.47;13.17;;;8.80;99.90;;;;;;5031384;28;20267;-66
2021/12/29 05:01:07;;;;;;;14.83;11.97;;;8.80;99.90;;;;;;5031165;28;20689;-66
2021/12/29 05:03:32;;;;;;;15.33;12.90;;;8.90;99.90;;;;;;5031035;28;20179;-65
2021/12/29 05:08:33;;;;;;;13.37;11.97;;;8.80;99.90;;;;;;5031394;28;20269;-65
2021/12/29 05:11:00;;;;;;;15.97;11.93;;;8.80;99.90;;;;;;5031166;28;20667;-65
2021/12/29 05:13:28;;;;;;;13.33;12.03;;;8.80;99.90;;;;;;5030956;28;20175;-65
2021/12/29 05:15:55;;;;;;;16.53;13.00;;;8.80;99.90;;;;;;5031087;28;20302;-66
2021/12/29 05:18:22;;;;;;;14.80;11.97;;;8.80;99.90;;;;;;5031529;28;20470;-65
2021/12/29 05:20:48;;;;;;;15.33;11.93;;;8.80;99.90;;;;;;5031255;28;20203;-65
2021/12/29 05:23:14;;;;;;;14.27;12.73;;;8.80;99.90;;;;;;5030727;28;20229;-66
2021/12/29 05:25:39;;;;;;;14.63;12.90;;;8.70;99.90;;;;;;5030925;28;20195;-67
2021/12/29 05:28:06;;;;;;;13.80;12.40;;;8.70;99.90;;;;;;5031077;28;20276;-65
2021/12/29 05:30:31;;;;;;;12.27;11.07;;;8.70;99.90;;;;;;5031246;28;20689;-66
2021/12/29 05:32:57;;;;;;;13.03;11.73;;;8.80;99.90;;;;;;5031089;28;20172;-65
2021/12/29 05:35:23;;;;;;;15.57;13.93;;;8.80;99.90;;;;;;5031010;28;20211;-66
2021/12/29 05:37:48;;;;;;;18.47;13.57;;;8.70;99.90;;;;;;5031056;28;20180;-66
2021/12/29 05:40:15;;;;;;;14.23;12.73;;;8.70;99.90;;;;;;5030774;28;20199;-65
2021/12/29 05:42:42;;;;;;;12.83;11.63;;;8.70;99.90;;;;;;5030705;28;20214;-65
2021/12/29 05:45:11;;;;;;;15.23;12.17;;;8.70;99.90;;;;;;5030929;28;20639;-65
2021/12/29 05:47:37;;;;;;;14.37;12.97;;;8.70;99.90;;;;;;5031654;28;20541;-64
2021/12/29 05:50:06;;;;;;;14.17;12.03;;;8.70;99.90;;;;;;5034529;28;20215;-66
2021/12/29 05:52:32;;;;;;;14.83;11.93;;;8.80;99.90;;;;;;5034411;28;20233;-65
2021/12/29 05:54:57;;;;;;;13.67;12.27;;;8.80;99.90;;;;;;5034461;28;20191;-64
2021/12/29 05:57:23;;;;;;;14.57;12.20;;;8.80;99.90;;;;;;5034510;28;20574;-66
2021/12/29 05:59:49;;;;;;;14.40;12.73;;;8.70;99.90;;;;;;5034538;28;20202;-65
2021/12/29 06:02:15;;;;;;;19.90;14.70;;;8.80;99.90;;;;;;5033959;28;20274;-65
2021/12/29 06:04:40;;;;;;;13.93;12.47;;;8.70;99.90;;;;;;5034451;28;20183;-67
2021/12/29 06:07:06;;;;;;;16.33;12.93;;;8.70;99.90;;;;;;5034349;28;20206;-66
2021/12/29 06:09:32;;;;;;;13.37;11.97;;;8.70;99.90;;;;;;5034174;28;20714;-66
2021/12/29 06:11:57;;;;;;;16.40;13.37;;;8.70;99.90;;;;;;5034185;28;20190;-65
2021/12/29 06:14:23;;;;;;;14.20;12.73;;;8.70;99.90;;;;;;5034186;28;20182;-66
2021/12/29 06:16:49;;;;;;;15.07;11.90;;;8.70;99.90;;;;;;5032940;28;20261;-67
2021/12/29 06:19:14;;;;;;;12.83;11.63;;;8.70;99.90;;;;;;5034165;28;20262;-65
2021/12/29 06:21:40;;;;;;;16.03;12.87;;;8.70;99.90;;;;;;5033927;28;20534;-65
2021/12/29 06:24:07;;;;;;;15.00;12.37;;;8.70;99.90;;;;;;5033993;28;20637;-65
2021/12/29 06:26:33;;;;;;;13.43;12.03;;;8.70;99.90;;;;;;5033942;28;20222;-65
2021/12/29 06:28:59;;;;;;;15.40;13.20;;;8.70;99.90;;;;;;5034195;28;20179;-65
2021/12/29 06:31:25;;;;;;;15.00;13.33;;;8.70;99.90;;;;;;5033494;28;20206;-65
2021/12/29 06:33:51;;;;;;;14.90;13.27;;;8.70;99.90;;;;;;5033763;28;20187;-64
2021/12/29 06:36:17;;;;;;;17.87;13.47;;;8.70;99.90;;;;;;5033721;28;20207;-66
2021/12/29 06:38:43;;;;;;;14.70;12.60;;;8.70;99.90;;;;;;5033508;28;20270;-65
2021/12/29 06:41:08;;;;;;;14.93;12.17;;;8.70;99.90;;;;;;5034092;28;20188;-65
2021/12/29 06:43:34;;;;;;;15.10;13.37;;;8.70;99.90;;;;;;5033193;28;20195;-66
2021/12/29 06:45:59;;;;;;;15.10;12.90;;;8.70;99.90;;;;;;5033644;28;20266;-65
2021/12/29 06:48:25;;;;;;;15.03;13.43;;;8.70;99.90;;;;;;5033977;28;20629;-65
2021/12/29 06:50:51;;;;;;;15.23;13.40;;;8.70;99.90;;;;;;5043917;23;20576;-66
2021/12/29 06:53:16;;;;;;;14.10;12.57;;;8.80;99.90;;;;;;5013474;28;20176;-66
2021/12/29 06:55:43;;;;;;;14.53;13.03;;;8.80;99.90;;;;;;5013675;28;20590;-66
2021/12/29 06:58:10;;;;;;;15.03;12.87;;;8.70;99.90;;;;;;5013917;28;20180;-66
2021/12/29 07:00:37;;;;;;;13.57;11.00;;;8.70;99.90;;;;;;5010921;28;20724;-66
2021/12/29 07:03:03;;;;;;;14.07;12.53;;;8.80;99.90;;;;;;5013085;28;20204;-66
2021/12/29 07:05:28;;;;;;;13.30;12.00;;;8.80;99.90;;;;;;5012971;28;20266;-65
2021/12/29 07:07:54;;;;;;;12.10;10.97;;;8.80;99.90;;;;;;5013471;28;20661;-65
2021/12/29 07:10:21;;;;;;;13.30;12.00;;;8.80;99.90;;;;;;5013177;28;20326;-66
2021/12/29 07:12:47;;;;;;;13.07;11.87;;;8.80;99.90;;;;;;5012912;28;20184;-65
2021/12/29 07:15:13;;;;;;;15.40;12.53;;;8.80;99.90;;;;;;5012936;28;20199;-65
2021/12/29 07:17:38;;;;;;;17.60;11.43;;;8.80;99.90;;;;;;5012761;28;20300;-66
2021/12/29 07:20:05;;;;;;;12.93;11.57;;;8.80;99.90;;;;;;5013319;28;20235;-66
2021/12/29 07:22:30;;;;;;;12.83;11.53;;;8.90;99.90;;;;;;5012693;28;20685;-66
2021/12/29 07:24:56;;;;;;;13.20;11.53;;;8.80;99.90;;;;;;5013222;28;20259;-66
2021/12/29 07:27:22;;;;;;;12.80;11.60;;;8.80;99.90;;;;;;5013051;28;20180;-66
2021/12/29 07:29:47;;;;;;;13.57;11.43;;;8.80;99.90;;;;;;5012750;28;20664;-65
2021/12/29 07:32:13;;;;;;;12.33;11.20;;;8.80;99.90;;;;;;5012874;28;20177;-65
2021/12/29 07:34:39;;;;;;;12.30;11.03;;;8.90;99.90;;;;;;5012407;28;20176;-65
2021/12/29 07:37:05;;;;;;;13.97;11.07;;;8.90;99.90;;;;;;5012919;28;20203;-66
2021/12/29 07:39:30;;;;;;;12.57;11.03;;;8.90;99.90;;;;;;5012540;28;20650;-66
2021/12/29 07:41:56;;;;;;;12.47;11.13;;;8.90;99.90;;;;;;5012698;28;20191;-66
2021/12/29 07:44:25;;;;;;;11.67;10.53;;;9.00;99.90;;;;;;5012551;28;20199;-65
2021/12/29 07:46:54;;;;;;;10.03;9.13;;;9.00;99.90;;;;;;5012648;28;20580;-66
2021/12/29 07:49:21;;;;;;;11.03;10.03;;;9.00;99.90;;;;;;5012495;28;20246;-66
2021/12/29 07:51:48;;;;;;;10.80;9.87;;;9.00;99.90;;;;;;5011034;28;20535;-66
2021/12/29 07:54:14;;;;;;;12.73;9.53;;;9.00;99.90;;;;;;5012304;28;20180;-65
2021/12/29 07:56:41;;;;;;;11.07;9.93;;;9.00;99.90;;;;;;5012418;28;20223;-66
2021/12/29 07:59:06;;;;;;;10.40;9.37;;;9.10;99.90;;;;;;5012364;28;20199;-66
2021/12/29 08:01:32;;;;;;;9.73;9.00;;;9.10;99.90;;;;;;5012345;28;20321;-65
2021/12/29 08:03:58;;;;;;;12.07;9.73;;;9.10;99.90;;;;;;5012074;28;20183;-66
2021/12/29 08:06:23;;;;;;;10.30;9.40;;;9.10;99.90;;;;;;5012446;28;20183;-66
2021/12/29 08:08:49;;;;;;;10.70;9.70;;;9.10;99.90;;;;;;5012007;28;20184;-67
2021/12/29 08:11:16;;;;;;;10.77;9.73;;;9.10;99.90;;;;;;5011338;28;20193;-65
2021/12/29 08:13:42;;;;;;;9.80;9.00;;;9.10;99.90;;;;;;5011700;28;20584;-66
2021/12/29 08:16:08;;;;;;;9.63;8.93;;;9.10;99.90;;;;;;5012300;28;20291;-66
2021/12/29 08:18:33;;;;;;;10.00;9.10;;;9.20;99.90;;;;;;5011861;28;20220;-65
2021/12/29 08:20:59;;;;;;;9.33;8.50;;;9.20;99.90;;;;;;5012103;28;20191;-66
2021/12/29 08:23:25;;;;;;;9.77;9.07;;;9.20;99.90;;;;;;5010401;28;20263;-66
2021/12/29 08:25:50;;;;;;;10.90;10.10;;;9.20;99.90;;;;;;5012263;28;20649;-66
2021/12/29 08:28:17;;;;;;;10.40;9.40;;;9.30;99.90;;;;;;5012041;28;20172;-66
2021/12/29 08:30:44;;;;;;;9.13;8.43;;;9.30;99.90;;;;;;5011946;28;20230;-66
2021/12/29 08:33:09;;;;;;;10.57;9.67;;;9.30;99.90;;;;;;5011595;28;20212;-66
2021/12/29 08:35:35;;;;;;;10.03;9.07;;;9.40;99.90;;;;;;5011546;28;20634;-65
2021/12/29 08:38:01;;;;;;;10.20;9.30;;;9.30;99.90;;;;;;5011732;28;20650;-66
2021/12/29 08:40:27;;;;;;;10.13;9.10;;;9.40;99.90;;;;;;5011655;28;20199;-66
2021/12/29 08:42:58;;;;;;;9.57;8.83;;;9.40;99.90;;;;;;5011613;28;20172;-66
2021/12/29 08:45:24;;;;;;;9.30;8.53;;;9.40;99.90;;;;;;5011658;28;20188;-65
2021/12/29 08:47:52;;;;;;;9.87;8.93;;;9.40;99.90;;;;;;5011814;28;20194;-65
2021/12/29 08:50:18;;;;;;;9.67;8.93;;;9.50;99.90;;;;;;5011632;28;20681;-66
2021/12/29 08:52:44;;;;;;;11.43;10.07;;;9.50;99.90;;;;;;5011229;28;20234;-66
2021/12/29 08:55:12;;;;;;;11.10;10.17;;;9.50;99.90;;;;;;5011778;28;20176;-66
2021/12/29 08:57:38;;;;;;;10.90;9.80;;;9.50;99.90;;;;;;5011439;28;20583;-66
2021/12/29 09:00:08;;;;;;;8.57;7.90;;;9.50;99.90;;;;;;5011704;28;20199;-65
2021/12/29 09:02:34;;;;;;;9.50;8.80;;;9.60;99.90;;;;;;5010889;28;20225;-66
2021/12/29 09:04:59;;;;;;;8.90;8.20;;;9.60;99.90;;;;;;5011712;28;20708;-66
2021/12/29 09:07:25;;;;;;;10.23;9.17;;;9.60;99.90;;;;;;5011595;28;20180;-65
2021/12/29 09:09:51;;;;;;;9.90;9.20;;;9.60;99.90;;;;;;5011373;28;20586;-66
2021/12/29 09:12:17;;;;;;;9.67;8.83;;;9.60;99.90;;;;;;5011649;28;20226;-66
2021/12/29 09:14:44;;;;;;;9.30;8.60;;;9.60;99.90;;;;;;5010470;28;20187;-66
2021/12/29 09:17:11;;;;;;;9.13;8.53;;;9.70;99.90;;;;;;5011931;28;20566;-66
2021/12/29 09:19:40;;;;;;;9.50;8.73;;;9.70;99.90;;;;;;5010911;28;20594;-66
2021/12/29 09:22:06;;;;;;;9.70;8.90;;;9.70;99.90;;;;;;5011355;28;20169;-66
2021/12/29 09:24:32;;;;;;;7.90;7.40;;;9.80;99.90;;;;;;5014831;28;20187;-66
2021/12/29 09:26:58;;;;;;;9.70;8.90;;;9.90;99.90;;;;;;5014894;28;20184;-66
2021/12/29 09:29:23;;;;;;;10.30;9.30;;;10.00;99.90;;;;;;5014965;28;20247;-66
2021/12/29 09:31:49;;;;;;;13.00;11.60;;;10.00;99.90;;;;;;5015158;28;20179;-65
2021/12/29 09:34:15;;;;;;;10.30;9.37;;;10.10;99.90;;;;;;5013549;28;20190;-66
2021/12/29 09:36:41;;;;;;;9.80;9.00;;;10.20;99.90;;;;;;5015163;28;20200;-65
2021/12/29 09:39:06;;;;;;;8.90;8.10;;;10.20;99.90;;;;;;5015007;28;20173;-66
2021/12/29 09:41:32;;;;;;;10.17;9.23;;;10.30;99.90;;;;;;5014800;28;20613;-66
2021/12/29 09:43:58;;;;;;;9.43;8.57;;;10.40;99.90;;;;;;5014821;28;20211;-66
2021/12/29 09:46:24;;;;;;;9.87;9.07;;;10.40;99.90;;;;;;5015375;28;20203;-65
2021/12/29 09:48:51;;;;;;;10.60;8.87;;;10.30;99.90;;;;;;5014691;28;20539;-66
2021/12/29 09:51:18;;;;;;;10.10;9.30;;;10.30;99.90;;;;;;5014961;28;20199;-66
2021/12/29 09:53:44;;;;;;;9.80;9.00;;;10.30;99.90;;;;;;5012976;28;20207;-65
2021/12/29 09:56:11;;;;;;;8.70;8.10;;;10.30;99.90;;;;;;5014994;28;20204;-66
2021/12/29 09:58:39;;;;;;;9.23;8.43;;;10.20;99.90;;;;;;5014490;28;20176;-66
2021/12/29 10:01:07;;;;;;;9.50;8.70;;;10.20;99.90;;;;;;5014351;28;20188;-65
2021/12/29 10:03:34;;;;;;;9.37;8.57;;;10.20;99.90;;;;;;5014103;28;20180;-65
2021/12/29 10:06:05;;;;;;;9.17;8.27;;;10.20;99.90;;;;;;5013599;28;20554;-65
2021/12/29 10:08:39;;;;;;;8.23;7.63;;;10.20;99.90;;;;;;5014337;28;20562;-66
2021/12/29 10:11:08;;;;;;;8.63;7.93;;;10.30;99.90;;;;;;5014620;28;20196;-65
2021/12/29 10:13:36;;;;;;;9.10;8.20;;;10.30;99.90;;;;;;5013741;28;20176;-65
2021/12/29 10:16:11;;;;;;;9.17;8.47;;;10.30;99.90;;;;;;5014519;28;20289;-63
2021/12/29 10:18:41;;;;;;;8.77;8.17;;;10.30;99.90;;;;;;5014117;28;20531;-64
2021/12/29 10:21:14;;;;;;;8.87;8.13;;;10.50;99.90;;;;;;5014339;28;20192;-64
2021/12/29 10:23:47;;;;;;;9.97;8.00;;;10.50;99.90;;;;;;5013629;28;20246;-65
2021/12/29 10:26:17;;;;;;;8.53;7.73;;;10.50;99.90;;;;;;5014353;28;20198;-66
2021/12/29 10:28:49;;;;;;;9.67;8.20;;;10.50;99.90;;;;;;5013950;28;20289;-66
2021/12/29 10:31:26;;;;;;;9.23;8.33;;;10.60;99.90;;;;;;5012953;28;20196;-65
2021/12/29 10:34:00;;;;;;;8.57;7.73;;;10.70;99.90;;;;;;5012792;28;20245;-66
2021/12/29 10:36:37;;;;;;;8.50;7.80;;;10.70;99.90;;;;;;5013853;28;20223;-66
2021/12/29 10:39:20;;;;;;;10.37;8.77;;;10.80;99.90;;;;;;5013940;28;20222;-65
2021/12/29 10:42:11;;;;;;;9.60;8.13;;;11.00;99.90;;;;;;5013768;28;20549;-66
2021/12/29 10:44:40;;;;;;;9.17;8.20;;;11.00;99.90;;;;;;5010435;28;20204;-65
2021/12/29 10:47:18;;;;;;;9.60;8.90;;;11.10;99.90;;;;;;5013973;28;20175;-67
2021/12/29 10:50:01;;;;;;;12.23;8.83;;;11.10;99.90;;;;;;5013136;28;20208;-67
2021/12/29 10:52:39;;;;;;;9.77;8.80;;;11.10;99.90;;;;;;5013588;28;20187;-66
2021/12/29 10:55:22;;;;;;;9.37;8.17;;;11.20;99.90;;;;;;5014025;28;20210;-65
2021/12/29 10:58:07;;;;;;;11.83;8.57;;;11.20;99.90;;;;;;5012992;28;20222;-65
2021/12/29 11:00:36;;;;;;;10.93;9.20;;;11.30;99.90;;;;;;5013462;28;20192;-66
2021/12/29 11:03:19;;;;;;;9.07;8.47;;;11.50;99.90;;;;;;5013188;28;20593;-66
2021/12/29 11:05:47;;;;;;;9.27;8.57;;;11.60;99.90;;;;;;5013275;28;20182;-64
2021/12/29 11:08:14;;;;;;;9.67;8.87;;;11.80;99.90;;;;;;5013294;28;20180;-66
2021/12/29 11:10:39;;;;;;;7.97;7.37;;;11.90;99.90;;;;;;5013301;28;20279;-65
2021/12/29 11:13:05;;;;;;;7.70;7.10;;;12.20;99.90;;;;;;5012894;28;20292;-66
2021/12/29 11:15:41;;;;;;;7.90;7.40;;;12.60;99.90;;;;;;5012888;28;20169;-66
2021/12/29 11:18:12;;;;;;;8.67;7.20;;;13.00;99.90;;;;;;5013280;28;20176;-65
2021/12/29 11:20:39;;;;;;;7.73;6.87;;;13.20;99.90;;;;;;5013057;28;20189;-65
2021/12/29 11:23:20;;;;;;;8.40;7.80;;;13.30;99.90;;;;;;5011697;28;20594;-65
2021/12/29 11:25:46;;;;;;;8.23;7.33;;;13.30;99.90;;;;;;5011173;28;20587;-64
2021/12/29 11:28:27;;;;;;;7.47;6.97;;;13.20;99.90;;;;;;5013088;28;20207;-64
2021/12/29 11:30:55;;;;;;;7.57;6.97;;;13.00;99.90;;;;;;5012786;28;20223;-64
2021/12/29 11:33:21;;;;;;;6.77;6.37;;;12.70;99.90;;;;;;5012820;28;20533;-64
2021/12/29 11:35:50;;;;;;;6.87;6.47;;;12.60;99.90;;;;;;5012777;28;20311;-65
2021/12/29 11:38:17;;;;;;;7.07;6.47;;;12.50;99.90;;;;;;5012698;28;20176;-65
2021/12/29 11:40:49;;;;;;;6.80;6.30;;;12.30;99.90;;;;;;5009934;28;20231;-65
2021/12/29 11:43:16;;;;;;;7.40;6.90;;;12.30;99.90;;;;;;5011557;28;20192;-64
2021/12/29 11:45:44;;;;;;;7.17;6.60;;;12.30;99.90;;;;;;5012142;28;20291;-65
2021/12/29 11:48:11;;;;;;;6.90;6.43;;;12.30;99.90;;;;;;5012719;28;20191;-64
2021/12/29 11:50:40;;;;;;;6.57;6.13;;;12.10;99.90;;;;;;5012225;28;20411;-64
2021/12/29 11:53:16;;;;;;;6.73;6.33;;;12.00;99.90;;;;;;5012349;28;20646;-65
2021/12/29 11:55:46;;;;;;;6.97;6.57;;;12.00;99.90;;;;;;5011044;28;20219;-65
2021/12/29 11:58:18;;;;;;;6.87;6.27;;;12.10;99.90;;;;;;5011196;28;20180;-64
2021/12/29 12:01:04;;;;;;;6.60;6.20;;;12.10;99.90;;;;;;5012272;28;20264;-64
2021/12/29 12:03:51;;;;;;;6.97;6.57;;;12.10;99.90;;;;;;5011864;28;20176;-65
2021/12/29 12:06:29;;;;;;;6.60;6.20;;;12.20;99.90;;;;;;5012320;28;20187;-64
2021/12/29 12:09:14;;;;;;;6.70;6.23;;;12.10;99.90;;;;;;5012069;28;20207;-63
2021/12/29 12:11:53;;;;;;;6.23;5.93;;;12.10;99.90;;;;;;5010640;28;20219;-64
2021/12/29 12:14:23;;;;;;;8.03;6.60;;;12.10;99.90;;;;;;5010541;28;20196;-65
2021/12/29 12:16:51;;;;;;;6.27;5.90;;;12.10;99.90;;;;;;5011243;28;20203;-65
2021/12/29 12:19:22;;;;;;;6.53;6.13;;;12.10;99.90;;;;;;5011138;28;20184;-64
2021/12/29 12:21:48;;;;;;;6.67;6.23;;;12.00;99.90;;;;;;5011264;28;20176;-65
2021/12/29 12:24:23;;;;;;;6.10;5.80;;;12.00;99.90;;;;;;5011807;28;20264;-66
2021/12/29 12:26:49;;;;;;;6.83;6.43;;;12.00;99.90;;;;;;5012063;28;20207;-66
2021/12/29 12:29:14;;;;;;;7.03;6.33;;;11.90;99.90;;;;;;5012127;28;20620;-64
2021/12/29 12:31:40;;;;;;;7.10;6.50;;;11.90;99.90;;;;;;5010041;28;20669;-65
2021/12/29 12:34:09;;;;;;;6.73;6.20;;;11.80;99.90;;;;;;5011817;28;20176;-65
2021/12/29 12:36:35;;;;;;;7.17;6.73;;;11.80;99.90;;;;;;5011492;28;20207;-63
2021/12/29 12:39:13;;;;;;;6.47;6.17;;;11.60;99.90;;;;;;5011749;28;20182;-65
2021/12/29 12:41:44;;;;;;;6.43;6.13;;;11.60;99.90;;;;;;5011353;28;20274;-65
2021/12/29 12:44:10;;;;;;;6.60;6.23;;;11.50;99.90;;;;;;5011542;28;20195;-65
2021/12/29 12:46:45;;;;;;;6.70;6.40;;;11.40;99.90;;;;;;5011319;28;20191;-63